Flight Track Log - Related Links

Times and Time Zones

All times are in EDT time to prevent confusion due to time zone crossing. See the EJA131 flight status page for this flight to view local times or setup timezone preferences in your user account.

Time Position Orientation Groundspeed Altitude Reporting Facility
EDT Latitude Longitude Course Direction KTS MPH feet Rate Location/Type
Sun 01:58:54 PM 35.2269 -80.9572 336° Northwest 171 197 1,500  Level Atlanta Center
Sun 01:59:37 PM 35.2669 -80.9786 336° Northwest 226 260 3,300 2,600 Climbing Atlanta Center
Sun 02:00:54 PM 35.3592 -80.9981 350° North 273 314 6,700 2,891 Climbing Atlanta Center
Sun 02:01:54 PM 35.4464 -80.9719 14° North 294 338 9,900 3,100 Climbing Atlanta Center
Sun 02:02:54 PM 35.5353 -80.9431 15° North 318 366 12,900 2,850 Climbing Atlanta Center
Sun 02:03:54 PM 35.6306 -80.9139 14° North 334 384 15,600 2,450 Climbing Atlanta Center
Sun 02:04:54 PM 35.7278 -80.8872 13° North 350 403 17,800 2,150 Climbing Atlanta Center
Sun 02:05:54 PM 35.8275 -80.8731 North 357 411 19,900 1,900 Climbing Atlanta Center
Sun 02:06:54 PM 35.9336 -80.8611 North 368 423 21,600 1,700 Climbing Atlanta Center
Sun 02:07:54 PM 36.0417 -80.8467 North 381 438 23,300 1,700 Climbing Atlanta Center
Sun 02:08:54 PM 36.1500 -80.8322 North 387 445 25,000 1,600 Climbing Atlanta Center
Sun 02:09:54 PM 36.2581 -80.8175 North 387 445 26,500 1,500 Climbing Atlanta Center
Sun 02:10:54 PM 36.3681 -80.8028 North 392 451 28,000 1,250 Climbing Atlanta Center
Sun 02:11:54 PM 36.4783 -80.7908 North 392 451 29,000 900 Climbing Atlanta Center
Sun 02:12:54 PM 36.5947 -80.7756 North 405 466 29,800 800 Climbing Atlanta Center
Sun 02:13:54 PM 36.6964 -80.7611 North 410 472 30,600 950 Climbing Atlanta Center
Sun 02:14:54 PM 36.8089 -80.7514 North 404 465 31,700 1,061 Climbing Atlanta Center
Sun 02:16:55 PM 37.0603 -80.7181 North 420 483 33,800 993 Climbing Indianapolis Center
Sun 02:17:13 PM 37.0875 -80.7186 359° North 409 471 34,000 911 Climbing Washington Center
Sun 02:18:14 PM 37.1853 -80.7225 358° North 404 465 35,000 496 Climbing Washington Center
Sun 02:19:14 PM 37.3019 -80.7250 359° North 404 465 35,000  Level Washington Center
Sun 02:20:12 PM 37.4208 -80.7281 359° North 409 471 35,000  Level Washington Center
Sun 02:22:05 PM 37.6689 -80.7333 359° North 453 521 35,000  Level Indianapolis Center
Sun 02:23:07 PM 37.7953 -80.7375 359° North 462 532 35,000  Level Indianapolis Center
Sun 02:24:08 PM 37.9219 -80.7417 359° North 465 535 35,000  Level Indianapolis Center
Sun 02:25:10 PM 38.0533 -80.7467 358° North 469 540 35,000  Level Indianapolis Center
Sun 02:26:12 PM 38.2117 -80.7519 358° North 474 545 35,000  Level Indianapolis Center
Sun 02:27:14 PM 38.3439 -80.7561 359° North 476 548 35,000  Level Indianapolis Center
Sun 02:28:16 PM 38.4772 -80.7619 358° North 480 552 35,000  Level Indianapolis Center
Sun 02:29:18 PM 38.6097 -80.7656 359° North 481 554 35,000  Level Indianapolis Center
Sun 02:30:20 PM 38.7444 -80.7711 358° North 484 557 35,000  Level Indianapolis Center
Sun 02:31:21 PM 38.8781 -80.7750 359° North 484 557 35,000  Level Indianapolis Center
Sun 02:32:23 PM 39.0406 -80.7803 359° North 485 558 35,000  Level Indianapolis Center
Sun 02:33:25 PM 39.1758 -80.7856 358° North 486 559 35,000  Level Indianapolis Center
Sun 02:34:27 PM 39.3103 -80.7897 359° North 488 562 35,000  Level Indianapolis Center
Sun 02:35:29 PM 39.4439 -80.7950 358° North 483 556 35,000  Level Indianapolis Center
Sun 02:36:31 PM 39.5794 -80.8003 358° North 485 558 35,000  Level Indianapolis Center
Sun 02:37:10 PM 39.6875 -80.8042 358° North 480 552 35,000  Level Cleveland Center
Sun 02:38:10 PM 39.8208 -80.8100 358° North 480 552 35,000  Level Cleveland Center
Sun 02:39:10 PM 39.9564 -80.8133 359° North 480 552 35,000  Level Cleveland Center
Sun 02:40:10 PM 40.0919 -80.8083 North 480 552 35,000  Level Cleveland Center
Sun 02:41:10 PM 40.2294 -80.7925 North 480 552 35,000  Level Cleveland Center
Sun 02:42:10 PM 40.3381 -80.7819 North 480 552 35,000  Level Cleveland Center
Sun 02:43:10 PM 40.4881 -80.7661 North 480 552 35,000  Level Cleveland Center
Sun 02:44:10 PM 40.6258 -80.7500 North 485 558 35,000  Level Cleveland Center
Sun 02:45:10 PM 40.7653 -80.7367 North 490 564 35,000  Level Cleveland Center
Sun 02:46:10 PM 40.9008 -80.7206 North 495 570 35,000  Level Cleveland Center
Sun 02:47:10 PM 41.0386 -80.7097 North 495 570 35,000 -200 Level Cleveland Center
Sun 02:48:10 PM 41.1761 -80.6908 North 500 575 34,600 -500 Descending Cleveland Center
Sun 02:49:10 PM 41.3178 -80.6772 North 505 581 34,000 -300 Descending Cleveland Center
Sun 02:50:10 PM 41.4575 -80.6939 355° North 500 575 34,000  Level Cleveland Center
Sun 02:51:10 PM 41.5931 -80.7081 356° North 494 568 34,000  Level Cleveland Center
Sun 02:52:10 PM 41.7306 -80.6528 17° North 499 574 34,000 -450 Level Cleveland Center
Sun 02:53:10 PM 41.8453 -80.5386 37° Northeast 502 578 33,100 -1,000 Descending Cleveland Center
Sun 02:54:10 PM 41.9619 -80.3989 42° Northeast 497 572 32,000 -1,100 Descending Cleveland Center
Sun 02:55:10 PM 42.0658 -80.2728 42° Northeast 500 575 30,900 -1,150 Descending Cleveland Center
Sun 02:56:10 PM 42.1697 -80.1433 43° Northeast 500 575 29,700 -1,400 Descending Cleveland Center
Sun 02:57:10 PM 42.2650 -80.0247 43° Northeast 481 554 28,100 -1,550 Descending Cleveland Center
Sun 02:58:10 PM 42.3478 -79.9258 41° Northeast 454 522 26,600 -1,500 Descending Cleveland Center
Sun 02:59:10 PM 42.4347 -79.8153 43° Northeast 434 499 25,100 -1,450 Descending Cleveland Center
Sun 03:00:10 PM 42.5297 -79.6986 42° Northeast 441 507 23,700 -1,550 Descending Cleveland Center
Sun 03:01:10 PM 42.6225 -79.5786 44° Northeast 447 514 22,000 -1,650 Descending Cleveland Center
Sun 03:02:10 PM 42.7133 -79.4642 43° Northeast 447 514 20,400 -1,550 Descending Cleveland Center
Sun 03:03:10 PM 42.7936 -79.3667 42° Northeast 420 483 18,900 -1,500 Descending Cleveland Center
Sun 03:04:10 PM 42.8889 -79.3167 21° North 380 437 17,400 -1,655 Descending Cleveland Center
Sun 03:04:37 PM 42.9333 -79.3000 15° North 370 426 16,500 -2,000 Descending Toronto Center

Login

Don't have an account? Register now (free) for customized features, flight alerts, and more!